createdAt,value
2019-03-23T00:02:22.434Z,79.31
2019-03-23T00:07:28.648Z,79.35
2019-03-23T00:12:34.798Z,79.37
2019-03-23T00:17:40.651Z,78.87
2019-03-23T00:22:47.422Z,78.69
2019-03-23T00:27:53.235Z,78.76
2019-03-23T00:32:59.040Z,78.92
2019-03-23T00:38:04.966Z,78.47
2019-03-23T00:43:10.859Z,78.23
2019-03-23T00:48:16.664Z,78.44
2019-03-23T00:53:22.799Z,78.09
2019-03-23T00:58:29.598Z,77.77
2019-03-23T01:03:35.754Z,77.40
2019-03-23T01:08:42.107Z,77.42
2019-03-23T01:13:48.215Z,77.44
2019-03-23T01:18:54.234Z,77.70
2019-03-23T01:24:00.025Z,79.43
2019-03-23T01:29:05.819Z,80.98
2019-03-23T01:34:14.061Z,81.70
2019-03-23T01:39:19.863Z,82.90
2019-03-23T01:44:25.666Z,81.93
2019-03-23T01:49:32.565Z,81.72
2019-03-23T01:54:38.379Z,83.45
2019-03-23T01:59:44.188Z,83.75
2019-03-23T02:04:50.854Z,83.49
2019-03-23T02:09:56.675Z,84.81
2019-03-23T02:15:03.656Z,85.67
2019-03-23T02:20:10.490Z,85.94
2019-03-23T02:25:16.723Z,86.62
2019-03-23T02:30:23.604Z,86.95
2019-03-23T02:35:29.424Z,87.26
2019-03-23T02:40:35.269Z,87.30
2019-03-23T02:45:41.067Z,88.03
2019-03-23T02:50:47.107Z,88.02
2019-03-23T02:55:53.325Z,87.77
2019-03-23T03:00:59.127Z,87.79
2019-03-23T03:06:04.958Z,88.24
2019-03-23T03:11:11.952Z,88.62
2019-03-23T03:16:18.602Z,89.17
2019-03-23T03:21:25.217Z,89.22
2019-03-23T03:26:31.390Z,88.58
2019-03-23T03:31:37.446Z,88.45
2019-03-23T03:36:44.635Z,88.33
2019-03-23T03:41:50.573Z,88.12
2019-03-23T03:46:56.367Z,88.43
2019-03-23T03:52:02.499Z,88.28
2019-03-23T03:57:09.195Z,88.10
2019-03-23T04:02:15.834Z,88.07
2019-03-23T04:07:21.721Z,88.30
2019-03-23T04:12:28.587Z,88.34
2019-03-23T04:17:34.630Z,88.33
2019-03-23T04:22:41.237Z,88.26
2019-03-23T04:27:47.238Z,88.44
2019-03-23T04:32:54.241Z,88.23
2019-03-23T04:37:59.929Z,88.04
2019-03-23T04:43:05.902Z,88.07
2019-03-23T04:48:11.666Z,87.71
2019-03-23T04:53:17.352Z,87.57
2019-03-23T04:58:23.370Z,87.47
2019-03-23T05:03:29.980Z,87.87
2019-03-23T05:08:36.238Z,87.76
2019-03-23T05:13:41.860Z,87.89
2019-03-23T05:18:47.471Z,87.86
2019-03-23T05:23:53.417Z,88.15
2019-03-23T05:28:59.964Z,88.16
2019-03-23T05:34:06.134Z,88.23
2019-03-23T05:39:11.811Z,88.24
2019-03-23T05:44:17.571Z,88.23
2019-03-23T05:49:23.638Z,88.03
2019-03-23T05:54:29.311Z,88.08
2019-03-23T05:59:35.010Z,88.42
2019-03-23T06:04:41.738Z,88.83
2019-03-23T06:09:47.435Z,88.43
2019-03-23T06:14:53.119Z,87.76
2019-03-23T06:19:58.945Z,87.58
2019-03-23T06:25:05.323Z,87.49
2019-03-23T06:30:11.482Z,86.98
2019-03-23T06:35:17.278Z,86.16
2019-03-23T06:40:23.788Z,86.23
2019-03-23T06:45:29.687Z,85.65
2019-03-23T06:50:36.214Z,84.88
2019-03-23T06:55:41.906Z,84.64
2019-03-23T07:00:48.077Z,84.48
2019-03-23T07:05:55.911Z,83.79
2019-03-23T07:11:01.707Z,83.45
2019-03-23T07:16:07.681Z,82.82
2019-03-23T07:21:14.523Z,81.80
2019-03-23T07:26:20.389Z,81.27
2019-03-23T07:31:26.663Z,80.49
2019-03-23T07:36:33.072Z,80.51
2019-03-23T07:41:39.381Z,78.65
2019-03-23T07:46:48.600Z,77.96
2019-03-23T07:51:54.569Z,76.94
2019-03-23T07:57:03.129Z,76.07
2019-03-23T08:02:09.250Z,74.51
2019-03-23T08:07:16.437Z,74.71
2019-03-23T08:12:26.400Z,73.53
2019-03-23T08:17:37.009Z,71.93
2019-03-23T08:22:45.435Z,71.22
2019-03-23T08:27:54.317Z,72.24
2019-03-23T08:33:00.752Z,72.98
2019-03-23T08:38:08.606Z,71.22
2019-03-23T08:43:19.150Z,70.87
2019-03-23T08:48:25.753Z,69.59
2019-03-23T08:53:31.694Z,69.62
2019-03-23T08:58:35.404Z,68.66
2019-03-23T09:03:51.793Z,68.54
2019-03-23T09:08:49.775Z,67.97
2019-03-23T09:13:58.029Z,67.74
2019-03-23T09:19:05.949Z,67.83
2019-03-23T09:24:13.112Z,66.00
2019-03-23T09:29:22.792Z,64.43
2019-03-23T09:34:33.706Z,63.88
2019-03-23T09:39:45.973Z,64.84
2019-03-23T09:44:56.455Z,63.33
2019-03-23T09:50:05.491Z,61.47
2019-03-23T09:55:13.875Z,60.23
2019-03-23T10:00:21.162Z,58.73
2019-03-23T10:05:28.689Z,58.66
2019-03-23T10:10:39.680Z,58.38
2019-03-23T10:15:48.218Z,57.42
2019-03-23T10:20:55.266Z,54.18
2019-03-23T10:26:04.056Z,53.59
2019-03-23T10:31:11.853Z,50.52
2019-03-23T10:36:19.901Z,51.60
2019-03-23T10:41:29.384Z,49.93
2019-03-23T10:46:41.426Z,56.15
2019-03-23T10:51:56.219Z,53.16
2019-03-23T10:57:03.453Z,54.14
2019-03-23T11:02:12.042Z,52.75
2019-03-23T11:07:24.865Z,51.06
2019-03-23T11:12:31.561Z,49.99
2019-03-23T11:17:40.370Z,50.09
2019-03-23T11:22:52.107Z,49.09
2019-03-23T11:28:00.744Z,50.22
2019-03-23T11:33:08.762Z,48.39
2019-03-23T11:38:17.204Z,48.50
2019-03-23T11:43:28.390Z,48.30
2019-03-23T11:48:38.283Z,47.67
2019-03-23T11:53:48.317Z,46.14
2019-03-23T11:58:56.148Z,45.87
2019-03-23T12:04:04.657Z,45.59
2019-03-23T12:09:13.940Z,45.68
2019-03-23T12:14:21.671Z,46.77
2019-03-23T12:19:32.628Z,46.00
2019-03-23T12:24:40.248Z,44.89
2019-03-23T12:29:48.144Z,44.36
2019-03-23T12:34:55.244Z,45.47
2019-03-23T12:40:04.796Z,44.66
2019-03-23T12:45:14.901Z,44.75
2019-03-23T12:50:20.762Z,44.55
2019-03-23T12:55:26.874Z,45.12
2019-03-23T13:00:32.707Z,44.82
2019-03-23T13:05:38.907Z,43.23
2019-03-23T13:10:44.713Z,44.89
2019-03-23T13:15:51.024Z,45.02
2019-03-23T13:20:56.799Z,45.26
2019-03-23T13:26:02.642Z,44.47
2019-03-23T13:31:08.443Z,44.02
2019-03-23T13:36:14.300Z,43.62
2019-03-23T13:41:20.035Z,44.18
2019-03-23T13:46:25.830Z,44.71
2019-03-23T13:51:31.657Z,44.69
2019-03-23T13:56:37.552Z,43.72
2019-03-23T14:01:43.362Z,42.84
2019-03-23T14:06:51.338Z,45.12
2019-03-23T14:11:59.618Z,42.88
2019-03-23T14:17:05.601Z,42.08
2019-03-23T14:22:15.667Z,42.58
2019-03-23T14:27:22.248Z,41.19
2019-03-23T14:32:29.454Z,40.19
2019-03-23T14:37:37.897Z,47.26
2019-03-23T14:42:50.544Z,48.09
2019-03-23T14:47:57.933Z,49.67
2019-03-23T14:53:07.920Z,51.06
2019-03-23T14:58:18.483Z,56.37
2019-03-23T15:03:27.854Z,56.60
2019-03-23T15:08:36.062Z,56.08
2019-03-23T15:13:47.666Z,58.37
2019-03-23T15:18:58.252Z,57.71
2019-03-23T15:24:10.886Z,57.66
2019-03-23T15:29:17.780Z,57.81
2019-03-23T15:34:28.961Z,59.08
2019-03-23T15:39:39.454Z,60.75
2019-03-23T15:45:03.733Z,60.97
2019-03-23T15:50:22.850Z,61.58
2019-03-23T15:55:33.190Z,61.21
2019-03-23T16:00:42.742Z,61.92
2019-03-23T16:05:53.259Z,62.72
2019-03-23T16:11:08.600Z,62.38
2019-03-23T16:16:19.434Z,62.81
2019-03-23T16:21:29.278Z,63.49
2019-03-23T16:26:35.296Z,64.84
2019-03-23T16:31:41.538Z,64.17
2019-03-23T16:36:49.196Z,65.04
2019-03-23T16:41:57.266Z,66.65
2019-03-23T16:47:03.644Z,67.26
2019-03-23T16:52:15.264Z,67.46
2019-03-23T16:57:22.871Z,67.70
2019-03-23T17:02:31.069Z,67.99
2019-03-23T17:07:37.396Z,67.94
2019-03-23T17:12:43.915Z,68.61
2019-03-23T17:17:49.729Z,69.66
2019-03-23T17:22:55.491Z,71.34
2019-03-23T17:28:01.265Z,71.37
2019-03-23T17:33:09.026Z,72.03
2019-03-23T17:38:15.923Z,72.47
2019-03-23T17:43:21.792Z,72.83
2019-03-23T17:48:27.473Z,73.58
2019-03-23T17:53:34.382Z,74.10
2019-03-23T17:58:40.155Z,74.48
2019-03-23T18:03:45.911Z,75.54
2019-03-23T18:08:51.676Z,76.78
2019-03-23T18:13:57.465Z,76.27
2019-03-23T18:19:03.227Z,76.54
2019-03-23T18:24:09.138Z,77.16
2019-03-23T18:29:15.963Z,78.41
2019-03-23T18:34:22.370Z,78.13
2019-03-23T18:39:29.396Z,78.36
2019-03-23T18:44:35.284Z,77.91
2019-03-23T18:49:41.049Z,78.16
2019-03-23T18:54:46.915Z,78.48
2019-03-23T18:59:52.990Z,79.36
2019-03-23T19:04:59.062Z,79.35
2019-03-23T19:10:05.604Z,79.61
2019-03-23T19:15:11.997Z,79.46
2019-03-23T19:20:18.209Z,79.65
2019-03-23T19:25:24.340Z,79.50
2019-03-23T19:30:30.208Z,79.29
2019-03-23T19:35:35.910Z,79.45
2019-03-23T19:40:43.255Z,79.03
2019-03-23T19:45:49.302Z,78.81
2019-03-23T19:50:55.035Z,79.26
2019-03-23T19:56:01.282Z,79.82
2019-03-23T20:01:07.269Z,80.51
2019-03-23T20:06:13.046Z,81.68
2019-03-23T20:11:18.826Z,80.84
2019-03-23T20:16:24.591Z,81.36
2019-03-23T20:21:30.279Z,80.61
2019-03-23T20:26:36.367Z,80.57
2019-03-23T20:31:42.692Z,80.88
2019-03-23T20:36:49.098Z,82.36
2019-03-23T20:41:54.994Z,82.87
2019-03-23T20:47:01.670Z,82.74
2019-03-23T20:52:08.659Z,82.91
2019-03-23T20:57:23.379Z,82.81
2019-03-23T21:02:22.168Z,82.42
2019-03-23T21:07:28.254Z,83.68
2019-03-23T21:12:34.387Z,84.10
2019-03-23T21:17:50.652Z,84.26
2019-03-23T21:22:47.822Z,84.65
2019-03-23T21:27:54.916Z,84.33
2019-03-23T21:33:01.036Z,84.12
2019-03-23T21:38:06.729Z,84.11
2019-03-23T21:43:12.495Z,84.29
2019-03-23T21:48:19.243Z,83.68
2019-03-23T21:53:26.442Z,85.99
2019-03-23T21:58:32.481Z,87.06
2019-03-23T22:03:38.279Z,87.69
2019-03-23T22:08:44.287Z,86.97
2019-03-23T22:13:50.082Z,86.36
2019-03-23T22:18:56.134Z,85.91
2019-03-23T22:24:01.821Z,85.94
2019-03-23T22:29:07.657Z,85.90
2019-03-23T22:34:13.462Z,85.69
2019-03-23T22:39:20.437Z,85.64
2019-03-23T22:44:27.373Z,85.11
2019-03-23T22:49:34.181Z,85.09
2019-03-23T22:54:40.394Z,84.85
2019-03-23T22:59:46.010Z,85.01
2019-03-23T23:04:52.431Z,85.54
2019-03-23T23:09:58.513Z,85.72
2019-03-23T23:15:05.155Z,85.73
2019-03-23T23:20:12.070Z,85.49
2019-03-23T23:25:17.820Z,85.66
2019-03-23T23:30:23.531Z,85.81
2019-03-23T23:35:29.526Z,86.55
2019-03-23T23:40:35.524Z,86.73
2019-03-23T23:45:41.280Z,86.30
2019-03-23T23:50:48.044Z,87.00
2019-03-23T23:55:53.806Z,87.63
